Norwich, ND

5:04 PM CDT on July 27, 2016 (GMT -0500)
KD0ASL WX | | Change Station

Elev 1539 ft 48.22 °N, 100.91 °W | Updated 12 minutes ago

Scattered Clouds
Scattered Clouds
78.4 °F
Feels Like 80 °F
N
2.7
Wind Variable Wind from ESE

Today
High -- | Low -- °F
--% Chance of Precip.
Yesterday
High -- | Low -- °F
Precip. -- in
Pressure 30.12 in
Visibility 10.0 miles
Clouds Scattered Clouds 9500 ft
Heat Index 80 °F
Dew Point 59 °F
Humidity 52%
Rainfall 0.00 in
Snow Depth Not available.
6:13 AM 9:26 PM
Last Quarter, 39% visible
METAR KMOT 272154Z 07008KT 10SM SCT095 24/14 A3013 RMK AO2 SLP197 T02440139
Pressure 30.12 in
Visibility 10.0 miles
Clouds Scattered Clouds 9500 ft
Heat Index 80 °F
Dew Point 59 °F
Humidity 52%
Rainfall 0.00 in
Snow Depth Not available.
6:13 AM 9:26 PM
Last Quarter, 39% visible
METAR KMOT 272154Z 07008KT 10SM SCT095 24/14 A3013 RMK AO2 SLP197 T02440139

10-Day Weather Forecast

Almanac

Astronomy

Jul. 27, 2016 Rise Set
Actual Time
Civil Twilight
Nautical Twilight
Astronomical Twilight
Moon
Length of Visible Light
Length of Day
Tomorrow will be .
, % of the Moon is Illuminated

Today's Extremes

State Highs State Lows

Community

WunderPhotos

Upload Photos

1,927,944 photos uploaded!

WunderBlog® & News

Nearby

Air Quality

  Air Quality AQ Index Pollutant
Not available.

Snow Depth

Station Depth Elevation

Earthquake Activity

City Distance Mag. Time & Date
Minimum magnitude displayed is 2.5.

Coastal Water Temperatures

Place Temperature

Stations

Nearby Weather Stations

Station Location Temp. Windchill Dew Point Humidity Wind Precip. Elev Updated Type
                   

Watches & Warnings

There are currently no watches in effect.